createdAt,value
2018-12-25T00:00:35.609Z,3.80
2018-12-25T00:03:05.107Z,3.80
2018-12-25T00:05:34.563Z,3.80
2018-12-25T00:08:04.141Z,3.70
2018-12-25T00:10:33.668Z,3.70
2018-12-25T00:13:03.172Z,3.70
2018-12-25T00:15:32.713Z,3.70
2018-12-25T00:18:02.286Z,3.80
2018-12-25T00:20:33.358Z,3.80
2018-12-25T00:23:03.115Z,3.80
2018-12-25T00:25:32.568Z,3.80
2018-12-25T00:28:02.050Z,3.90
2018-12-25T00:30:31.659Z,3.80
2018-12-25T00:33:01.155Z,3.70
2018-12-25T00:35:32.151Z,3.70
2018-12-25T00:38:02.062Z,3.70
2018-12-25T00:40:31.779Z,3.70
2018-12-25T00:43:01.358Z,3.50
2018-12-25T00:45:30.898Z,3.50
2018-12-25T00:48:00.507Z,3.50
2018-12-25T00:50:30.066Z,3.40
2018-12-25T00:52:59.537Z,3.40
2018-12-25T00:55:29.310Z,3.40
2018-12-25T00:57:58.829Z,3.40
2018-12-25T01:00:28.320Z,3.50
2018-12-25T01:02:57.784Z,3.50
2018-12-25T01:05:27.443Z,3.50
2018-12-25T01:07:56.921Z,3.60
2018-12-25T01:10:26.478Z,3.60
2018-12-25T01:12:56.262Z,3.60
2018-12-25T01:15:25.903Z,3.70
2018-12-25T01:17:55.417Z,3.70
2018-12-25T01:20:24.979Z,3.70
2018-12-25T01:22:54.565Z,3.80
2018-12-25T01:25:24.356Z,3.80
2018-12-25T01:27:54.311Z,3.80
2018-12-25T01:30:24.019Z,3.90
2018-12-25T01:32:53.539Z,3.90
2018-12-25T01:35:23.046Z,3.90
2018-12-25T01:37:52.638Z,4.00
2018-12-25T01:40:22.194Z,4.00
2018-12-25T01:42:52.106Z,4.00
2018-12-25T01:45:21.653Z,4.10
2018-12-25T01:47:51.223Z,4.20
2018-12-25T01:50:20.687Z,4.20
2018-12-25T01:52:50.440Z,4.30
2018-12-25T01:55:20.097Z,4.40
2018-12-25T01:57:49.666Z,4.50
2018-12-25T02:00:19.130Z,4.60
2018-12-25T02:02:48.747Z,4.60
2018-12-25T02:05:18.279Z,4.70
2018-12-25T02:07:47.937Z,4.70
2018-12-25T02:10:17.433Z,4.70
2018-12-25T02:12:46.929Z,4.80
2018-12-25T02:15:16.536Z,4.80
2018-12-25T02:17:46.178Z,4.80
2018-12-25T02:20:15.709Z,4.80
2018-12-25T02:22:45.213Z,4.80
2018-12-25T02:25:14.747Z,4.80
2018-12-25T02:27:44.406Z,4.80
2018-12-25T02:30:14.108Z,4.80
2018-12-25T02:32:43.698Z,4.80
2018-12-25T02:35:13.328Z,4.80
2018-12-25T02:37:43.039Z,4.80
2018-12-25T02:40:12.649Z,4.90
2018-12-25T02:42:42.235Z,4.90
2018-12-25T02:45:11.718Z,4.90
2018-12-25T02:47:41.429Z,4.90
2018-12-25T02:50:11.019Z,4.90
2018-12-25T02:52:40.679Z,5.00
2018-12-25T02:55:10.204Z,5.00
2018-12-25T02:57:39.782Z,5.10
2018-12-25T03:00:09.533Z,5.10
2018-12-25T03:02:39.113Z,5.20
2018-12-25T03:05:08.716Z,5.20
2018-12-25T03:07:38.225Z,5.20
2018-12-25T03:10:09.112Z,5.20
2018-12-25T03:12:38.765Z,5.20
2018-12-25T03:15:08.375Z,5.20
2018-12-25T03:17:37.955Z,5.20
2018-12-25T03:20:07.559Z,5.20
2018-12-25T03:22:37.193Z,5.20
2018-12-25T03:25:06.805Z,5.20
2018-12-25T03:27:36.401Z,5.20
2018-12-25T03:30:06.080Z,5.20
2018-12-25T03:32:35.857Z,5.20
2018-12-25T03:35:08.284Z,5.20
2018-12-25T03:37:37.815Z,5.20
2018-12-25T03:40:07.826Z,5.20
2018-12-25T03:42:37.399Z,5.20
2018-12-25T03:45:06.920Z,5.30
2018-12-25T03:47:36.415Z,5.30
2018-12-25T03:50:10.890Z,5.50
2018-12-25T03:52:39.064Z,5.50
2018-12-25T03:55:08.529Z,5.50
2018-12-25T03:57:38.065Z,5.60
2018-12-25T04:00:07.875Z,5.60
2018-12-25T04:02:37.508Z,5.50
2018-12-25T04:05:07.115Z,5.50
2018-12-25T04:07:36.684Z,5.50
2018-12-25T04:10:06.650Z,5.50
2018-12-25T04:12:36.167Z,5.50
2018-12-25T04:15:06.711Z,5.60
2018-12-25T04:17:36.209Z,5.60
2018-12-25T04:20:08.406Z,5.60
2018-12-25T04:22:37.985Z,5.70
2018-12-25T04:25:07.587Z,5.70
2018-12-25T04:27:37.164Z,5.70
2018-12-25T04:30:06.804Z,5.70
2018-12-25T04:32:36.302Z,5.70
2018-12-25T04:35:05.864Z,5.70
2018-12-25T04:37:35.374Z,5.70
2018-12-25T04:40:06.436Z,5.60
2018-12-25T04:42:36.110Z,5.60
2018-12-25T04:45:05.769Z,5.50
2018-12-25T04:47:35.424Z,5.50
2018-12-25T04:50:05.898Z,5.50
2018-12-25T04:52:35.560Z,5.50
2018-12-25T04:55:05.328Z,5.50
2018-12-25T04:57:34.906Z,5.50
2018-12-25T05:00:05.616Z,5.50
2018-12-25T05:02:35.178Z,5.50
2018-12-25T05:05:05.182Z,5.50
2018-12-25T05:07:34.665Z,5.50
2018-12-25T05:10:05.554Z,5.50
2018-12-25T05:12:35.065Z,5.50
2018-12-25T05:15:05.438Z,5.50
2018-12-25T05:17:35.075Z,5.40
2018-12-25T05:20:05.277Z,5.40
2018-12-25T05:22:34.839Z,5.40
2018-12-25T05:25:04.553Z,5.30
2018-12-25T05:27:34.114Z,5.30
2018-12-25T05:30:04.037Z,5.30
2018-12-25T05:32:33.598Z,5.40
2018-12-25T05:35:03.080Z,5.40
2018-12-25T05:37:32.689Z,5.40
2018-12-25T05:40:02.236Z,5.40
2018-12-25T05:42:31.797Z,5.40
2018-12-25T05:45:01.306Z,5.40
2018-12-25T05:47:30.957Z,5.40
2018-12-25T05:50:00.575Z,5.40
2018-12-25T05:52:30.158Z,5.40
2018-12-25T05:54:59.645Z,5.40
2018-12-25T05:57:29.141Z,5.40
2018-12-25T05:59:58.598Z,5.40
2018-12-25T06:02:28.093Z,5.40
2018-12-25T06:04:57.621Z,5.40
2018-12-25T06:07:27.377Z,5.40
2018-12-25T06:09:56.951Z,5.40
2018-12-25T06:12:27.055Z,5.30
2018-12-25T06:14:56.944Z,5.30
2018-12-25T06:17:26.520Z,5.30
2018-12-25T06:19:56.078Z,5.30
2018-12-25T06:22:25.658Z,5.30
2018-12-25T06:24:55.158Z,5.30
2018-12-25T06:27:24.721Z,5.40
2018-12-25T06:29:54.566Z,5.40
2018-12-25T06:32:24.067Z,5.50
2018-12-25T06:34:53.643Z,5.50
2018-12-25T06:37:23.152Z,5.50
2018-12-25T06:39:52.635Z,5.50
2018-12-25T06:42:22.143Z,5.40
2018-12-25T06:44:51.811Z,5.30
2018-12-25T06:47:21.402Z,5.30
2018-12-25T06:49:50.980Z,5.30
2018-12-25T06:52:20.475Z,5.30
2018-12-25T06:54:49.955Z,5.30
2018-12-25T06:57:19.552Z,5.30
2018-12-25T06:59:49.124Z,5.30
2018-12-25T07:02:18.857Z,5.30
2018-12-25T07:04:48.492Z,5.30
2018-12-25T07:07:18.144Z,5.30
2018-12-25T07:09:47.639Z,5.20
2018-12-25T07:12:17.134Z,5.20
2018-12-25T07:14:46.641Z,5.30
2018-12-25T07:17:16.236Z,5.30
2018-12-25T07:19:45.803Z,5.30
2018-12-25T07:22:15.279Z,5.30
2018-12-25T07:24:44.815Z,5.30
2018-12-25T07:27:14.337Z,5.30
2018-12-25T07:29:43.907Z,5.20
2018-12-25T07:32:14.985Z,5.20
2018-12-25T07:34:44.556Z,5.10
2018-12-25T07:37:14.903Z,5.10
2018-12-25T07:39:44.490Z,5.10
2018-12-25T07:42:14.083Z,5.00
2018-12-25T07:44:43.690Z,4.90
2018-12-25T07:47:13.250Z,4.90
2018-12-25T07:49:42.785Z,4.80
2018-12-25T07:52:12.490Z,4.80
2018-12-25T07:54:42.065Z,4.70
2018-12-25T07:57:11.866Z,4.80
2018-12-25T07:59:41.590Z,4.80
2018-12-25T08:02:12.803Z,4.80
2018-12-25T08:04:42.326Z,4.80
2018-12-25T08:07:11.941Z,4.90
2018-12-25T08:09:41.626Z,4.90
2018-12-25T08:12:11.368Z,5.00
2018-12-25T08:14:40.879Z,5.00
2018-12-25T08:17:10.509Z,5.10
2018-12-25T08:19:40.009Z,5.00
2018-12-25T08:22:09.699Z,5.10
2018-12-25T08:24:39.266Z,5.10
2018-12-25T08:27:08.936Z,5.20
2018-12-25T08:29:38.575Z,5.30
2018-12-25T08:32:08.279Z,5.30
2018-12-25T08:34:37.924Z,5.30
2018-12-25T08:37:07.577Z,5.40
2018-12-25T08:39:37.202Z,5.40
2018-12-25T08:42:06.772Z,5.40
2018-12-25T08:44:36.311Z,5.50
2018-12-25T08:47:05.883Z,5.60
2018-12-25T08:49:35.432Z,5.70
2018-12-25T08:52:05.023Z,5.70
2018-12-25T08:54:34.579Z,5.70
2018-12-25T08:57:04.305Z,5.70
2018-12-25T08:59:33.945Z,5.70
2018-12-25T09:02:03.464Z,5.70
2018-12-25T09:04:33.039Z,5.70
2018-12-25T09:07:02.513Z,5.70
2018-12-25T09:09:32.086Z,5.60
2018-12-25T09:12:02.545Z,5.60
2018-12-25T09:14:33.125Z,5.60
2018-12-25T09:17:03.068Z,5.60
2018-12-25T09:19:32.662Z,5.60
2018-12-25T09:22:02.148Z,5.60
2018-12-25T09:24:31.942Z,5.60
2018-12-25T09:27:01.592Z,5.60
2018-12-25T09:29:31.134Z,5.70
2018-12-25T09:32:00.707Z,5.70
2018-12-25T09:34:30.311Z,5.60
2018-12-25T09:36:59.871Z,5.60
2018-12-25T09:39:29.478Z,5.70
2018-12-25T09:41:59.062Z,5.70
2018-12-25T09:44:28.645Z,5.70
2018-12-25T09:46:58.302Z,5.80
2018-12-25T09:49:27.791Z,5.80
2018-12-25T09:51:57.276Z,5.90
2018-12-25T09:54:26.885Z,5.90
2018-12-25T09:56:56.480Z,6.00
2018-12-25T09:59:27.030Z,6.00
2018-12-25T10:01:56.770Z,6.00
2018-12-25T10:04:26.258Z,6.00
2018-12-25T10:06:55.763Z,6.00
2018-12-25T10:09:25.269Z,6.00
2018-12-25T10:11:55.023Z,6.00
2018-12-25T10:14:24.659Z,6.10
2018-12-25T10:16:54.238Z,6.00
2018-12-25T10:19:23.742Z,6.10
2018-12-25T10:21:53.239Z,6.10
2018-12-25T10:24:22.738Z,6.20
2018-12-25T10:26:52.315Z,6.20
2018-12-25T10:29:21.890Z,6.20
2018-12-25T10:31:51.407Z,6.20
2018-12-25T10:34:20.888Z,6.30
2018-12-25T10:36:50.484Z,6.30
2018-12-25T10:39:20.018Z,6.40
2018-12-25T10:41:49.822Z,6.50
2018-12-25T10:44:19.308Z,6.50
2018-12-25T10:46:48.952Z,6.50
2018-12-25T10:49:18.487Z,6.60
2018-12-25T10:51:48.080Z,6.60
2018-12-25T10:54:17.539Z,6.60
2018-12-25T10:56:47.116Z,6.50
2018-12-25T10:59:16.918Z,6.50
2018-12-25T11:01:46.492Z,6.60
2018-12-25T11:04:15.951Z,6.60
2018-12-25T11:06:45.596Z,6.60
2018-12-25T11:09:15.144Z,6.60
2018-12-25T11:11:44.707Z,6.60
2018-12-25T11:14:14.172Z,6.70
2018-12-25T11:16:43.760Z,6.70
2018-12-25T11:20:11.525Z,6.60
2018-12-25T11:22:39.039Z,6.70
2018-12-25T11:25:08.431Z,6.70
2018-12-25T11:27:37.988Z,6.70
2018-12-25T11:30:07.570Z,6.70
2018-12-25T11:32:37.152Z,6.80
2018-12-25T11:35:07.053Z,6.80
2018-12-25T11:37:36.538Z,6.80
2018-12-25T11:40:06.291Z,6.80
2018-12-25T11:42:35.733Z,6.90
2018-12-25T11:45:05.605Z,6.90
2018-12-25T11:47:34.983Z,6.90
2018-12-25T11:50:04.822Z,6.90
2018-12-25T11:52:34.294Z,6.90
2018-12-25T11:55:03.825Z,7.00
2018-12-25T11:57:33.272Z,7.10
2018-12-25T12:00:02.778Z,7.10
2018-12-25T12:02:33.858Z,7.20
2018-12-25T12:05:03.392Z,7.30
2018-12-25T12:07:32.861Z,7.30
2018-12-25T12:10:02.436Z,7.20
2018-12-25T12:12:31.898Z,7.20
2018-12-25T12:15:01.334Z,7.30
2018-12-25T12:17:30.805Z,7.40
2018-12-25T12:20:00.441Z,7.40
2018-12-25T12:22:36.925Z,7.50
2018-12-25T12:25:00.963Z,7.50
2018-12-25T12:27:30.459Z,7.50
2018-12-25T12:29:59.943Z,7.70
2018-12-25T12:32:29.407Z,7.60
2018-12-25T12:34:58.767Z,7.70
2018-12-25T12:37:28.226Z,7.70
2018-12-25T12:39:57.715Z,7.70
2018-12-25T12:42:27.123Z,7.80
2018-12-25T12:44:56.738Z,7.70
2018-12-25T12:47:26.139Z,7.60
2018-12-25T12:49:55.501Z,7.60
2018-12-25T12:52:24.944Z,7.60
2018-12-25T12:54:54.452Z,7.70
2018-12-25T12:57:23.924Z,7.70
2018-12-25T12:59:53.293Z,7.60
2018-12-25T13:02:22.971Z,7.60
2018-12-25T13:04:52.347Z,7.60
2018-12-25T13:07:21.994Z,7.60
2018-12-25T13:09:51.498Z,7.70
2018-12-25T13:12:20.913Z,7.70
2018-12-25T13:14:50.353Z,7.70
2018-12-25T13:17:19.968Z,7.70
2018-12-25T13:19:49.358Z,7.70
2018-12-25T13:22:18.868Z,7.70
2018-12-25T13:24:48.272Z,7.70
2018-12-25T13:27:17.694Z,7.70
2018-12-25T13:29:47.242Z,7.60
2018-12-25T13:32:16.642Z,7.70
2018-12-25T13:34:46.114Z,7.70
2018-12-25T13:37:15.594Z,7.70
2018-12-25T13:39:45.069Z,7.70
2018-12-25T13:42:16.159Z,7.70
2018-12-25T13:44:45.645Z,7.70
2018-12-25T13:47:15.182Z,7.70
2018-12-25T13:49:44.559Z,7.70
2018-12-25T13:52:14.008Z,7.70
2018-12-25T13:54:43.573Z,7.70
2018-12-25T13:57:12.984Z,7.70
2018-12-25T13:59:42.840Z,7.70
2018-12-25T14:02:12.465Z,7.70
2018-12-25T14:04:42.122Z,7.70
2018-12-25T14:07:11.613Z,7.70
2018-12-25T14:09:41.070Z,7.80
2018-12-25T14:12:10.632Z,7.70
2018-12-25T14:14:40.090Z,7.70
2018-12-25T14:17:09.676Z,7.70
2018-12-25T14:19:39.455Z,7.70
2018-12-25T14:22:08.915Z,7.70
2018-12-25T14:24:38.267Z,7.70
2018-12-25T14:27:07.738Z,7.70
2018-12-25T14:29:37.086Z,7.60
2018-12-25T14:32:06.492Z,7.60
2018-12-25T14:34:35.992Z,7.60
2018-12-25T14:37:05.522Z,7.60
2018-12-25T14:39:34.879Z,7.60
2018-12-25T14:42:04.416Z,7.50
2018-12-25T14:44:33.854Z,7.50
2018-12-25T14:47:03.323Z,7.50
2018-12-25T14:49:32.760Z,7.40
2018-12-25T14:52:02.257Z,7.50
2018-12-25T14:54:31.667Z,7.50
2018-12-25T14:57:01.155Z,7.40
2018-12-25T14:59:30.521Z,7.40
2018-12-25T15:01:59.911Z,7.30
2018-12-25T15:04:29.403Z,7.30
2018-12-25T15:06:59.028Z,7.30
2018-12-25T15:09:28.406Z,7.30
2018-12-25T15:11:58.031Z,7.30
2018-12-25T15:14:27.459Z,7.30
2018-12-25T15:16:56.907Z,7.30
2018-12-25T15:19:26.298Z,7.30
2018-12-25T15:21:55.686Z,7.20
2018-12-25T15:24:25.152Z,7.20
2018-12-25T15:26:54.548Z,7.10
2018-12-25T15:29:25.039Z,7.10
2018-12-25T15:31:54.657Z,7.10
2018-12-25T15:34:24.264Z,7.00
2018-12-25T15:36:53.664Z,7.00
2018-12-25T15:39:23.190Z,7.00
2018-12-25T15:41:52.658Z,6.90
2018-12-25T15:44:22.019Z,6.90
2018-12-25T15:46:51.493Z,6.90
2018-12-25T15:49:20.842Z,6.90
2018-12-25T15:51:50.242Z,6.90
2018-12-25T15:54:19.647Z,6.90
2018-12-25T15:56:49.104Z,6.80
2018-12-25T15:59:18.486Z,6.80
2018-12-25T16:01:47.957Z,6.80
2018-12-25T16:04:17.375Z,6.80
2018-12-25T16:06:47.033Z,6.80
2018-12-25T16:09:16.466Z,6.80
2018-12-25T16:11:45.943Z,6.80
2018-12-25T16:14:15.308Z,6.80
2018-12-25T16:16:44.881Z,6.80
2018-12-25T16:19:14.243Z,6.70
2018-12-25T16:21:43.907Z,6.70
2018-12-25T16:24:13.268Z,6.70
2018-12-25T16:26:42.858Z,6.70
2018-12-25T16:29:12.259Z,6.70
2018-12-25T16:31:41.778Z,6.60
2018-12-25T16:34:11.189Z,6.60
2018-12-25T16:36:40.603Z,6.60
2018-12-25T16:39:10.015Z,6.50
2018-12-25T16:41:39.723Z,6.40
2018-12-25T16:44:09.136Z,6.40
2018-12-25T16:46:40.114Z,6.40
2018-12-25T16:49:09.579Z,6.30
2018-12-25T16:51:39.044Z,6.30
2018-12-25T16:54:10.083Z,6.30
2018-12-25T16:56:41.084Z,6.30
2018-12-25T16:59:10.470Z,6.20
2018-12-25T17:01:39.969Z,6.20
2018-12-25T17:04:09.451Z,6.20
2018-12-25T17:06:38.932Z,6.20
2018-12-25T17:09:08.402Z,6.20
2018-12-25T17:11:37.771Z,6.20
2018-12-25T17:14:07.242Z,6.20
2018-12-25T17:16:36.762Z,6.20
2018-12-25T17:19:06.166Z,6.30
2018-12-25T17:21:35.535Z,6.30
2018-12-25T17:24:05.060Z,6.30
2018-12-25T17:26:34.477Z,6.30
2018-12-25T17:29:03.976Z,6.30
2018-12-25T17:31:33.498Z,6.30
2018-12-25T17:34:02.892Z,6.30
2018-12-25T17:36:32.244Z,6.40
2018-12-25T17:39:01.766Z,6.40
2018-12-25T17:41:31.410Z,6.40
2018-12-25T17:44:01.131Z,6.30
2018-12-25T17:46:30.607Z,6.40
2018-12-25T17:49:00.014Z,6.30
2018-12-25T17:51:29.837Z,6.30
2018-12-25T17:53:59.237Z,6.30
2018-12-25T17:56:28.626Z,6.30
2018-12-25T17:58:58.015Z,6.30
2018-12-25T18:01:27.403Z,6.30
2018-12-25T18:03:56.764Z,6.30
2018-12-25T18:06:26.247Z,6.30
2018-12-25T18:08:55.677Z,6.40
2018-12-25T18:11:25.112Z,6.40
2018-12-25T18:13:54.599Z,6.40
2018-12-25T18:16:24.159Z,6.30
2018-12-25T18:18:53.554Z,6.20
2018-12-25T18:21:22.965Z,6.10
2018-12-25T18:23:52.416Z,6.00
2018-12-25T18:26:21.987Z,5.90
2018-12-25T18:28:51.443Z,5.80
2018-12-25T18:31:20.915Z,5.80
2018-12-25T18:33:50.285Z,5.70
2018-12-25T18:36:19.737Z,5.80
2018-12-25T18:38:49.096Z,5.70
2018-12-25T18:41:18.573Z,5.70
2018-12-25T18:43:47.942Z,5.70
2018-12-25T18:46:17.357Z,5.60
2018-12-25T18:48:46.780Z,5.70
2018-12-25T18:51:16.456Z,5.70
2018-12-25T18:53:45.904Z,5.60
2018-12-25T18:56:15.378Z,5.60
2018-12-25T18:58:44.831Z,5.60
2018-12-25T19:01:14.309Z,5.60
2018-12-25T19:03:43.721Z,5.70
2018-12-25T19:06:13.186Z,5.70
2018-12-25T19:08:42.648Z,5.80
2018-12-25T19:11:14.128Z,5.80
2018-12-25T19:13:43.230Z,5.70
2018-12-25T19:16:12.636Z,5.70
2018-12-25T19:18:42.038Z,5.70
2018-12-25T19:21:11.530Z,5.60
2018-12-25T19:23:44.119Z,5.60
2018-12-25T19:26:13.594Z,5.50
2018-12-25T19:28:43.063Z,5.50
2018-12-25T19:31:12.551Z,5.40
2018-12-25T19:33:41.976Z,5.40
2018-12-25T19:36:11.377Z,5.40
2018-12-25T19:38:40.936Z,5.30
2018-12-25T19:41:10.418Z,5.30
2018-12-25T19:43:39.971Z,5.20
2018-12-25T19:46:09.415Z,5.10
2018-12-25T19:48:38.951Z,5.10
2018-12-25T19:51:08.371Z,4.90
2018-12-25T19:53:37.964Z,4.90
2018-12-25T19:56:07.641Z,4.80
2018-12-25T19:58:37.147Z,4.60
2018-12-25T20:01:06.970Z,4.50
2018-12-25T20:03:39.209Z,4.40
2018-12-25T20:06:14.580Z,4.40
2018-12-25T20:08:55.729Z,4.50
2018-12-25T20:11:46.191Z,4.40
2018-12-25T20:14:41.363Z,4.40
2018-12-25T20:17:42.686Z,4.40
2018-12-25T20:20:31.756Z,4.50
2018-12-25T20:23:28.593Z,4.50
2018-12-25T20:26:01.087Z,4.60
2018-12-25T20:29:08.684Z,4.70
2018-12-25T20:32:05.463Z,4.80
2018-12-25T20:35:10.216Z,4.80
2018-12-25T20:38:05.580Z,4.90
2018-12-25T20:40:56.822Z,4.90
2018-12-25T20:43:51.798Z,4.90
2018-12-25T20:46:27.083Z,4.90
2018-12-25T20:49:14.059Z,5.00
2018-12-25T20:51:58.323Z,5.00
2018-12-25T20:54:36.974Z,5.00
2018-12-25T20:57:42.886Z,5.10
2018-12-25T21:00:29.710Z,5.00
2018-12-25T21:03:18.593Z,5.10
2018-12-25T21:06:09.238Z,5.10
2018-12-25T21:09:14.495Z,5.10
2018-12-25T21:11:46.968Z,5.10
2018-12-25T21:14:51.198Z,5.10
2018-12-25T21:17:56.858Z,5.10
2018-12-25T21:20:53.862Z,5.10
2018-12-25T21:23:59.620Z,5.10
2018-12-25T21:27:03.776Z,5.20
2018-12-25T21:29:33.407Z,5.20
2018-12-25T21:32:03.245Z,5.20
2018-12-25T21:34:32.793Z,5.20
2018-12-25T21:37:02.407Z,5.20
2018-12-25T21:39:32.013Z,5.30
2018-12-25T21:42:02.146Z,5.30
2018-12-25T21:44:32.334Z,5.40
2018-12-25T21:47:01.776Z,5.40
2018-12-25T21:49:31.581Z,5.40
2018-12-25T21:52:01.020Z,5.40
2018-12-25T21:54:31.161Z,5.40
2018-12-25T21:57:01.071Z,5.40
2018-12-25T21:59:30.605Z,5.40
2018-12-25T22:02:00.043Z,5.50
2018-12-25T22:04:29.571Z,5.40
2018-12-25T22:06:58.979Z,5.40
2018-12-25T22:09:28.462Z,5.50
2018-12-25T22:11:58.134Z,5.50
2018-12-25T22:14:27.687Z,5.50
2018-12-25T22:16:57.322Z,5.40
2018-12-25T22:19:26.862Z,5.40
2018-12-25T22:21:56.226Z,5.40
2018-12-25T22:24:25.642Z,5.40
2018-12-25T22:26:58.366Z,5.30
2018-12-25T22:29:27.917Z,5.30
2018-12-25T22:31:57.293Z,5.20
2018-12-25T22:34:26.698Z,5.20
2018-12-25T22:36:56.379Z,5.20
2018-12-25T22:39:25.869Z,5.20
2018-12-25T22:41:55.224Z,5.20
2018-12-25T22:44:24.621Z,5.20
2018-12-25T22:46:54.109Z,5.30
2018-12-25T22:49:23.499Z,5.30
2018-12-25T22:51:53.017Z,5.30
2018-12-25T22:54:22.512Z,5.30
2018-12-25T22:56:51.952Z,5.30
2018-12-25T22:59:21.503Z,5.30
2018-12-25T23:01:51.012Z,5.30
2018-12-25T23:04:20.612Z,5.40
2018-12-25T23:06:49.985Z,5.40
2018-12-25T23:09:19.443Z,5.40
2018-12-25T23:11:48.876Z,5.40
2018-12-25T23:14:18.615Z,5.50
2018-12-25T23:16:48.017Z,5.50
2018-12-25T23:19:17.419Z,5.50
2018-12-25T23:21:46.785Z,5.60
2018-12-25T23:24:16.279Z,5.60
2018-12-25T23:26:45.712Z,5.60
2018-12-25T23:29:15.204Z,5.70
2018-12-25T23:31:44.710Z,5.70
2018-12-25T23:34:14.111Z,5.70
2018-12-25T23:36:43.543Z,5.70
2018-12-25T23:39:12.945Z,5.70
2018-12-25T23:41:42.451Z,5.70
2018-12-25T23:44:11.935Z,5.80
2018-12-25T23:46:41.389Z,5.80
2018-12-25T23:49:10.787Z,5.80
2018-12-25T23:51:40.157Z,5.80
2018-12-25T23:54:09.571Z,5.70
2018-12-25T23:56:39.175Z,5.70
2018-12-25T23:59:08.822Z,5.70
